Rio Madeira — D5FY9 — position and weather

sailwx.info

Track history (hours):
 
Tides and Currents Weather Stations Pressure Air Temp Water Temp Dewpoint Dewpoint Depression Visibility Wind Speed Wind Dir Waves Ship Positions

Rio Madeira

Last reported at 2017-Nov-18 19:18 UTC. Time now 2017-Nov-19 18:16 UTC.
Position N 32°30' E 032°59'.

Length 286 m; draft 9.8 m.

Type: Cargo ship. MMSI: 636092571.

Date/timePositionNaut miles runAvg speedWind from/ knotsBaromVisibWave heightAir tempDewpointWater temp
2017-Nov-18 19:18N 32°30' E 032°59'414.4
2017-Nov-18 19:00N 32°34' E 033°01'714.4
2017-Nov-18 18:30N 32°40' E 033°04'714.4
2017-Nov-18 18:00N 32°47' E 033°08'914.5
2017-Nov-18 17:25N 32°55' E 033°13'614.5
2017-Nov-18 17:00N 32°60' E 033°16'714.6
2017-Nov-18 16:30N 33°06' E 033°20'714.6
2017-Nov-18 16:00N 33°13' E 033°24'714.5
2017-Nov-18 15:30N 33°20' E 033°28'714.7
2017-Nov-18 15:00N 33°26' E 033°31'714.7
2017-Nov-18 14:30N 33°33' E 033°35'814.9
2017-Nov-18 14:00N 33°40' E 033°39'11714.6
2017-Nov-18 06:00N 35°24' E 034°42'79 2.3 070 / 171014.0 5.4 23.214.724.0
2017-Nov-16 20:29N 36°43' E 034°39'0 0.2
2017-Nov-16 19:34N 36°43' E 034°39'0 0.0
2017-Nov-16 19:28N 36°43' E 034°39'0 0.2
2017-Nov-16 18:58N 36°43' E 034°39'0 0.0
2017-Nov-16 18:28N 36°43' E 034°39'0 0.2
2017-Nov-16 17:46N 36°43' E 034°39'0 0.1
2017-Nov-16 17:28N 36°43' E 034°39'0 0.1
2017-Nov-16 16:58N 36°43' E 034°39'0 0.0
2017-Nov-16 15:16N 36°43' E 034°39'0 0.0
2017-Nov-16 14:58N 36°43' E 034°39'0 0.0
2017-Nov-16 14:25N 36°43' E 034°39'0 0.0
2017-Nov-16 13:58N 36°43' E 034°39'0 0.0
2017-Nov-16 12:58N 36°43' E 034°39'0 0.0
2017-Nov-16 11:07N 36°43' E 034°39'0 0.1
2017-Nov-16 10:58N 36°43' E 034°39'13 0.5
2017-Nov-15 11:00N 36°30' E 034°42'13312.1 1018.210.8 21.814.925.0
2017-Nov-15 00:00N 34°18' E 035°06'   040 / 51017.9 5.4 22.014.425.0
2017-Nov-11 12:00N 31°30' E 028°48'8714.5 360 / 91018.610.8 23.011.724.0
2017-Nov-11 06:00N 32°00' E 027°12'9816.4 020 / 51019.427.0 21.511.823.0
2017-Nov-11 00:00N 32°36' E 025°24'9615.9 320 / 101019.610.8 19.310.623.0
2017-Nov-10 18:00N 33°06' E 023°36'9515.8 360 / 101020.727.0 19.411.222.0
2017-Nov-10 12:00N 33°36' E 021°48'21618.0 270 / 61020.510.8 22.411.823.0
2017-Nov-10 00:00N 34°48' E 017°42'15618.0 180 / 71020.810.8 20.711.923.0
2017-Nov-09 15:21N 35°43' E 014°43'617.9
2017-Nov-09 15:00N 35°47' E 014°37'5 9.6
2017-Nov-09 14:30N 35°49' E 014°32'0 0.1
2017-Nov-09 10:01N 35°49' E 014°33'0 0.1
2017-Nov-09 09:58N 35°49' E 014°33'0 0.0
2017-Nov-09 09:22N 35°49' E 014°33'0 0.0
2017-Nov-09 08:43N 35°49' E 014°33'0 0.0
2017-Nov-09 08:25N 35°49' E 014°33'0 0.0
2017-Nov-09 07:58N 35°49' E 014°33'0 0.0
2017-Nov-09 07:22N 35°49' E 014°33'0 0.0
2017-Nov-09 06:55N 35°49' E 014°33'0 0.0
2017-Nov-08 23:13N 35°49' E 014°33'0 0.0
2017-Nov-08 22:52N 35°49' E 014°33'0 0.0
2017-Nov-08 21:19N 35°49' E 014°33'0 0.0
2017-Nov-08 20:55N 35°49' E 014°33'0 0.0
2017-Nov-08 20:25N 35°49' E 014°33'0 0.4
2017-Nov-08 19:56N 35°49' E 014°32'2 3.7
2017-Nov-08 19:30N 35°48' E 014°34'  
Track history (hours):
 
Tides and Currents Weather Stations Pressure Air Temp Water Temp Dewpoint Dewpoint Depression Visibility Wind Speed Wind Dir Waves Ship Positions

Rio Madeira

Last reported at 2017-Nov-18 19:18 UTC. Time now 2017-Nov-19 18:16 UTC.
Position N 32°30' E 032°59'.

Length 286 m; draft 9.8 m.

Type: Cargo ship. MMSI: 636092571.

Date/timePositionNaut miles runAvg speedWind from/ knotsBaromVisibWave heightAir tempDewpointWater temp
2017-Nov-18 19:18N 32°30' E 032°59'414.4
2017-Nov-18 19:00N 32°34' E 033°01'714.4
2017-Nov-18 18:30N 32°40' E 033°04'714.4
2017-Nov-18 18:00N 32°47' E 033°08'914.5
2017-Nov-18 17:25N 32°55' E 033°13'614.5
2017-Nov-18 17:00N 32°60' E 033°16'714.6
2017-Nov-18 16:30N 33°06' E 033°20'714.6
2017-Nov-18 16:00N 33°13' E 033°24'714.5
2017-Nov-18 15:30N 33°20' E 033°28'714.7
2017-Nov-18 15:00N 33°26' E 033°31'714.7
2017-Nov-18 14:30N 33°33' E 033°35'814.9
2017-Nov-18 14:00N 33°40' E 033°39'11714.6
2017-Nov-18 06:00N 35°24' E 034°42'79 2.3 070 / 171014.0 5.4 23.214.724.0
2017-Nov-16 20:29N 36°43' E 034°39'0 0.2
2017-Nov-16 19:34N 36°43' E 034°39'0 0.0
2017-Nov-16 19:28N 36°43' E 034°39'0 0.2
2017-Nov-16 18:58N 36°43' E 034°39'0 0.0
2017-Nov-16 18:28N 36°43' E 034°39'0 0.2
2017-Nov-16 17:46N 36°43' E 034°39'0 0.1
2017-Nov-16 17:28N 36°43' E 034°39'0 0.1
2017-Nov-16 16:58N 36°43' E 034°39'0 0.0
2017-Nov-16 15:16N 36°43' E 034°39'0 0.0
2017-Nov-16 14:58N 36°43' E 034°39'0 0.0
2017-Nov-16 14:25N 36°43' E 034°39'0 0.0
2017-Nov-16 13:58N 36°43' E 034°39'0 0.0
2017-Nov-16 12:58N 36°43' E 034°39'0 0.0
2017-Nov-16 11:07N 36°43' E 034°39'0 0.1
2017-Nov-16 10:58N 36°43' E 034°39'13 0.5
2017-Nov-15 11:00N 36°30' E 034°42'13312.1 1018.210.8 21.814.925.0
2017-Nov-15 00:00N 34°18' E 035°06'   040 / 51017.9 5.4 22.014.425.0
2017-Nov-11 12:00N 31°30' E 028°48'8714.5 360 / 91018.610.8 23.011.724.0
2017-Nov-11 06:00N 32°00' E 027°12'9816.4 020 / 51019.427.0 21.511.823.0
2017-Nov-11 00:00N 32°36' E 025°24'9615.9 320 / 101019.610.8 19.310.623.0
2017-Nov-10 18:00N 33°06' E 023°36'9515.8 360 / 101020.727.0 19.411.222.0
2017-Nov-10 12:00N 33°36' E 021°48'21618.0 270 / 61020.510.8 22.411.823.0
2017-Nov-10 00:00N 34°48' E 017°42'15618.0 180 / 71020.810.8 20.711.923.0
2017-Nov-09 15:21N 35°43' E 014°43'617.9
2017-Nov-09 15:00N 35°47' E 014°37'5 9.6
2017-Nov-09 14:30N 35°49' E 014°32'0 0.1
2017-Nov-09 10:01N 35°49' E 014°33'0 0.1
2017-Nov-09 09:58N 35°49' E 014°33'0 0.0
2017-Nov-09 09:22N 35°49' E 014°33'0 0.0
2017-Nov-09 08:43N 35°49' E 014°33'0 0.0
2017-Nov-09 08:25N 35°49' E 014°33'0 0.0
2017-Nov-09 07:58N 35°49' E 014°33'0 0.0
2017-Nov-09 07:22N 35°49' E 014°33'0 0.0
2017-Nov-09 06:55N 35°49' E 014°33'0 0.0
2017-Nov-08 23:13N 35°49' E 014°33'0 0.0
2017-Nov-08 22:52N 35°49' E 014°33'0 0.0
2017-Nov-08 21:19N 35°49' E 014°33'0 0.0
2017-Nov-08 20:55N 35°49' E 014°33'0 0.0
2017-Nov-08 20:25N 35°49' E 014°33'0 0.4
2017-Nov-08 19:56N 35°49' E 014°32'2 3.7
2017-Nov-08 19:30N 35°48' E 014°34'  

Dump ship's entire track history